Time;durP1;ratioP1;P1;durP2;ratioP2;P2;SDS_P1;SDS_P2;PMS_P1;PMS_P2;Temp;Humidity;BMP_temperature;BMP_pressure;BME280_temperature;BME280_humidity;BME280_pressure;Samples;Min_cycle;Max_cycle;Signal;HPM_P1;HPM_P2
2023/10/28 00:01:36;;;;;;;15.05;5.53;;;;;;;;;;4962381;28;92769;-62
2023/10/28 00:04:02;;;;;;;13.10;6.30;;;;;;;;;;4968075;28;94443;-62
2023/10/28 00:06:29;;;;;;;12.05;5.25;;;;;;;;;;4960315;28;94923;-62
2023/10/28 00:08:55;;;;;;;14.27;6.30;;;;;;;;;;4964393;28;93425;-62
2023/10/28 00:11:22;;;;;;;15.77;6.32;;;;;;;;;;4963772;28;92855;-62
2023/10/28 00:13:49;;;;;;;14.80;5.82;;;;;;;;;;4961321;28;94169;-62
2023/10/28 00:16:16;;;;;;;10.77;5.88;;;;;;;;;;4962254;28;93499;-62
2023/10/28 00:18:43;;;;;;;13.10;5.95;;;;;;;;;;4960801;28;92484;-62
2023/10/28 00:21:11;;;;;;;15.65;6.55;;;;;;;;;;4960892;28;93129;-62
2023/10/28 00:23:38;;;;;;;17.27;6.13;;;;;;;;;;4958527;28;93213;-62
2023/10/28 00:26:04;;;;;;;28.92;7.22;;;;;;;;;;4968944;28;92478;-62
2023/10/28 00:28:34;;;;;;;16.67;6.40;;;;;;;;;;4963331;28;93522;-65
2023/10/28 00:31:02;;;;;;;25.17;6.27;;;;;;;;;;4958476;28;94831;-65
2023/10/28 00:33:29;;;;;;;18.98;6.75;;;;;;;;;;4962782;28;96551;-65
2023/10/28 00:35:55;;;;;;;19.20;6.28;;;;;;;;;;4956878;28;94337;-65
2023/10/28 00:38:22;;;;;;;14.55;6.38;;;;;;;;;;4959376;28;92838;-65
2023/10/28 00:40:48;;;;;;;15.65;6.40;;;;;;;;;;4965994;28;93105;-65
2023/10/28 00:43:15;;;;;;;18.50;6.43;;;;;;;;;;4967385;28;93179;-64
2023/10/28 00:45:42;;;;;;;21.50;6.75;;;;;;;;;;4964896;28;92437;-64
2023/10/28 00:48:08;;;;;;;16.65;6.22;;;;;;;;;;4964634;28;93139;-65
2023/10/28 00:50:34;;;;;;;18.98;6.22;;;;;;;;;;4967615;28;92517;-65
2023/10/28 00:53:04;;;;;;;15.05;6.35;;;;;;;;;;4964047;28;93418;-64
2023/10/28 00:55:31;;;;;;;16.63;6.32;;;;;;;;;;4959888;28;96042;-65
2023/10/28 00:57:58;;;;;;;22.15;6.55;;;;;;;;;;4958224;28;92506;-64
2023/10/28 01:00:24;;;;;;;23.60;6.13;;;;;;;;;;4964328;28;93031;-64
2023/10/28 01:02:52;;;;;;;22.58;6.20;;;;;;;;;;4967789;28;93668;-65
2023/10/28 01:05:19;;;;;;;20.05;6.13;;;;;;;;;;4967206;28;92532;-65
2023/10/28 01:07:46;;;;;;;17.48;6.32;;;;;;;;;;4964976;28;93437;-65
2023/10/28 01:10:23;;;;;;;13.25;6.07;;;;;;;;;;4971440;28;94504;-65
2023/10/28 01:12:49;;;;;;;20.73;5.90;;;;;;;;;;4965766;28;93156;-65
2023/10/28 01:15:16;;;;;;;14.00;5.57;;;;;;;;;;4962610;28;93164;-65
2023/10/28 01:17:42;;;;;;;13.85;5.70;;;;;;;;;;4960428;28;92495;-65
2023/10/28 01:20:10;;;;;;;15.82;5.95;;;;;;;;;;4966794;28;95265;-65
2023/10/28 01:22:37;;;;;;;12.48;5.53;;;;;;;;;;4963771;28;93408;-64
2023/10/28 01:25:03;;;;;;;17.27;6.53;;;;;;;;;;4967610;28;92652;-64
2023/10/28 01:27:30;;;;;;;11.43;5.63;;;;;;;;;;4965514;28;93496;-65
2023/10/28 01:29:56;;;;;;;18.80;5.80;;;;;;;;;;4965432;28;93120;-65
2023/10/28 01:32:22;;;;;;;14.23;5.88;;;;;;;;;;4968855;28;92524;-64
2023/10/28 01:34:50;;;;;;;13.75;5.20;;;;;;;;;;4960954;28;93401;-64
2023/10/28 01:37:17;;;;;;;19.25;5.53;;;;;;;;;;4967087;28;91846;-64
2023/10/28 01:39:48;;;;;;;14.98;4.75;;;;;;;;;;4960752;28;92486;-64
2023/10/28 01:42:15;;;;;;;15.70;5.20;;;;;;;;;;4960999;28;93366;-64
2023/10/28 01:44:41;;;;;;;25.27;6.13;;;;;;;;;;4966024;28;95118;-64
2023/10/28 01:47:10;;;;;;;19.42;5.20;;;;;;;;;;4964039;28;96725;-64
2023/10/28 01:49:37;;;;;;;22.88;5.97;;;;;;;;;;4966988;28;94475;-65
2023/10/28 01:52:04;;;;;;;18.70;5.78;;;;;;;;;;4966969;28;92571;-65
2023/10/28 01:54:33;;;;;;;12.93;5.07;;;;;;;;;;4959775;28;94363;-65
2023/10/28 01:57:00;;;;;;;18.33;5.15;;;;;;;;;;4966331;28;92805;-64
2023/10/28 01:59:26;;;;;;;15.15;5.32;;;;;;;;;;4953464;28;93202;-65
2023/10/28 02:01:53;;;;;;;12.25;5.38;;;;;;;;;;4965093;28;93714;-65
2023/10/28 02:04:20;;;;;;;19.02;5.43;;;;;;;;;;4966633;28;92525;-65
2023/10/28 02:06:49;;;;;;;15.90;5.75;;;;;;;;;;4963691;28;93612;-65
2023/10/28 02:09:17;;;;;;;16.55;5.07;;;;;;;;;;4965153;28;95248;-65
2023/10/28 02:11:44;;;;;;;26.52;6.28;;;;;;;;;;4959336;28;92404;-65
2023/10/28 02:14:11;;;;;;;20.88;6.70;;;;;;;;;;4969716;28;93056;-64
2023/10/28 02:16:38;;;;;;;10.20;5.00;;;;;;;;;;4963569;28;92541;-65
2023/10/28 02:19:05;;;;;;;19.30;5.18;;;;;;;;;;4958609;28;93227;-65
2023/10/28 02:21:31;;;;;;;18.55;6.10;;;;;;;;;;4965667;28;93727;-65
2023/10/28 02:24:00;;;;;;;17.70;5.93;;;;;;;;;;4964684;28;92821;-64
2023/10/28 02:26:26;;;;;;;17.95;5.63;;;;;;;;;;4965980;28;93136;-65
2023/10/28 02:28:52;;;;;;;23.83;6.63;;;;;;;;;;4965573;28;93516;-64
2023/10/28 02:31:19;;;;;;;23.40;5.80;;;;;;;;;;4967444;28;92445;-65
2023/10/28 02:33:45;;;;;;;21.60;6.30;;;;;;;;;;4961507;28;95153;-65
2023/10/28 02:36:12;;;;;;;19.83;5.80;;;;;;;;;;4966413;28;94358;-64
2023/10/28 02:38:40;;;;;;;15.70;5.00;;;;;;;;;;4962785;28;93091;-64
2023/10/28 02:41:06;;;;;;;21.92;6.10;;;;;;;;;;4959370;28;93369;-64
2023/10/28 02:43:35;;;;;;;16.73;5.68;;;;;;;;;;4965517;28;92412;-64
2023/10/28 02:46:03;;;;;;;24.60;5.95;;;;;;;;;;4964948;28;93214;-64
2023/10/28 02:48:29;;;;;;;22.08;6.43;;;;;;;;;;4964496;28;93403;-62
2023/10/28 02:51:01;;;;;;;17.00;5.40;;;;;;;;;;4958734;28;91831;-61
2023/10/28 02:53:28;;;;;;;21.13;5.45;;;;;;;;;;4967054;28;93638;-61
2023/10/28 02:55:54;;;;;;;15.63;5.28;;;;;;;;;;4962137;28;93588;-63
2023/10/28 02:58:21;;;;;;;24.27;6.68;;;;;;;;;;4966774;28;94924;-62
2023/10/28 03:00:47;;;;;;;19.38;5.20;;;;;;;;;;4962641;28;93458;-62
2023/10/28 03:03:13;;;;;;;19.75;6.10;;;;;;;;;;4962545;28;92490;-62
2023/10/28 03:05:40;;;;;;;19.48;5.53;;;;;;;;;;4962814;28;93213;-62
2023/10/28 03:08:06;;;;;;;29.33;5.95;;;;;;;;;;4964798;28;93431;-62
2023/10/28 03:10:32;;;;;;;14.93;5.90;;;;;;;;;;4960399;28;92467;-62
2023/10/28 03:12:59;;;;;;;17.13;4.82;;;;;;;;;;4964002;28;93171;-62
2023/10/28 03:15:25;;;;;;;17.52;5.38;;;;;;;;;;4964605;28;92700;-62
2023/10/28 03:17:52;;;;;;;20.67;5.25;;;;;;;;;;4962998;28;92401;-62
2023/10/28 03:20:20;;;;;;;15.98;4.40;;;;;;;;;;4969005;28;93268;-62
2023/10/28 03:22:47;;;;;;;21.10;4.85;;;;;;;;;;4956716;28;94942;-63
2023/10/28 03:25:13;;;;;;;19.63;4.28;;;;;;;;;;4959138;28;95624;-62
2023/10/28 03:27:40;;;;;;;15.48;4.65;;;;;;;;;;4959545;28;94872;-62
2023/10/28 03:30:06;;;;;;;13.48;5.18;;;;;;;;;;4963824;28;92358;-62
2023/10/28 03:32:33;;;;;;;16.95;4.68;;;;;;;;;;4963027;28;93169;-63
2023/10/28 03:34:59;;;;;;;20.45;4.65;;;;;;;;;;4963614;28;93427;-62
2023/10/28 03:37:26;;;;;;;12.27;4.82;;;;;;;;;;4964691;28;92639;-62
2023/10/28 03:39:53;;;;;;;17.30;4.20;;;;;;;;;;4965545;28;93504;-62
2023/10/28 03:42:19;;;;;;;14.38;4.47;;;;;;;;;;4957645;28;92443;-63
2023/10/28 03:44:46;;;;;;;14.40;4.60;;;;;;;;;;4966604;28;94179;-61
2023/10/28 03:47:13;;;;;;;13.55;4.82;;;;;;;;;;4963351;28;96860;-62
2023/10/28 03:49:39;;;;;;;16.65;4.85;;;;;;;;;;4962685;28;92645;-62
2023/10/28 03:52:06;;;;;;;12.20;4.57;;;;;;;;;;4964644;28;93169;-62
2023/10/28 03:54:33;;;;;;;13.00;4.28;;;;;;;;;;4962995;28;92745;-62
2023/10/28 03:56:59;;;;;;;12.05;4.30;;;;;;;;;;4962859;28;92523;-64
2023/10/28 03:59:25;;;;;;;10.30;3.85;;;;;;;;;;4961356;28;94334;-64
2023/10/28 04:01:51;;;;;;;16.98;4.72;;;;;;;;;;4967706;28;93469;-64
2023/10/28 04:04:18;;;;;;;15.10;4.80;;;;;;;;;;4962135;28;93014;-64
2023/10/28 04:06:45;;;;;;;15.90;4.30;;;;;;;;;;4952821;28;93425;-65
2023/10/28 04:09:14;;;;;;;15.02;4.70;;;;;;;;;;4962531;28;92555;-64
2023/10/28 04:11:40;;;;;;;13.07;3.72;;;;;;;;;;4963840;28;94747;-64
2023/10/28 04:14:07;;;;;;;10.50;3.83;;;;;;;;;;4961242;28;93449;-64
2023/10/28 04:16:34;;;;;;;11.48;4.10;;;;;;;;;;4963089;28;92743;-64
2023/10/28 04:19:00;;;;;;;8.73;3.72;;;;;;;;;;4967885;28;94184;-64
2023/10/28 04:21:27;;;;;;;7.55;3.40;;;;;;;;;;4962816;28;93444;-64
2023/10/28 04:23:53;;;;;;;10.82;4.10;;;;;;;;;;4967245;28;92513;-64
2023/10/28 04:26:20;;;;;;;6.63;3.33;;;;;;;;;;4957268;28;93302;-64
2023/10/28 04:28:46;;;;;;;13.30;4.05;;;;;;;;;;4958429;28;91692;-65
2023/10/28 04:31:15;;;;;;;10.80;3.40;;;;;;;;;;4964585;28;93767;-64
2023/10/28 04:33:41;;;;;;;7.75;3.22;;;;;;;;;;4962616;28;95017;-64
2023/10/28 04:36:09;;;;;;;9.02;3.00;;;;;;;;;;4962127;28;94978;-64
2023/10/28 04:38:39;;;;;;;12.73;3.50;;;;;;;;;;4962421;28;95817;-64
2023/10/28 04:41:08;;;;;;;9.77;3.13;;;;;;;;;;4965094;28;93415;-64
2023/10/28 04:43:35;;;;;;;10.43;3.35;;;;;;;;;;4959311;28;92487;-64
2023/10/28 04:46:01;;;;;;;10.85;3.35;;;;;;;;;;4963429;28;93165;-64
2023/10/28 04:48:28;;;;;;;8.73;3.53;;;;;;;;;;4960632;28;92622;-64
2023/10/28 04:50:55;;;;;;;10.82;3.72;;;;;;;;;;4961741;28;93163;-64
2023/10/28 04:53:24;;;;;;;8.98;3.25;;;;;;;;;;4964857;28;92618;-64
2023/10/28 04:55:50;;;;;;;10.63;3.10;;;;;;;;;;4957805;28;92456;-64
2023/10/28 04:58:17;;;;;;;6.82;2.92;;;;;;;;;;4964113;28;93151;-64
2023/10/28 05:00:45;;;;;;;6.18;3.00;;;;;;;;;;4957833;28;95798;-64
2023/10/28 05:03:12;;;;;;;8.95;3.17;;;;;;;;;;4960259;28;92531;-64
2023/10/28 05:05:39;;;;;;;10.85;3.00;;;;;;;;;;4964920;28;92977;-64
2023/10/28 05:08:05;;;;;;;10.45;2.97;;;;;;;;;;4963424;28;92589;-65
2023/10/28 05:10:32;;;;;;;6.75;2.75;;;;;;;;;;4962739;28;92432;-64
2023/10/28 05:12:59;;;;;;;9.23;2.50;;;;;;;;;;4962282;28;94209;-64
2023/10/28 05:15:25;;;;;;;7.63;2.50;;;;;;;;;;4963257;28;92429;-64
2023/10/28 05:17:52;;;;;;;10.18;2.60;;;;;;;;;;4961467;28;93096;-64
2023/10/28 05:20:18;;;;;;;11.07;2.80;;;;;;;;;;4957569;28;93512;-64
2023/10/28 05:22:45;;;;;;;6.88;2.60;;;;;;;;;;4957148;28;92579;-64
2023/10/28 05:25:12;;;;;;;7.07;2.83;;;;;;;;;;4963715;28;94905;-64
2023/10/28 05:27:39;;;;;;;4.28;2.15;;;;;;;;;;4968373;28;94404;-64
2023/10/28 05:30:06;;;;;;;7.32;2.47;;;;;;;;;;4966121;28;92730;-64
2023/10/28 05:32:32;;;;;;;6.00;2.22;;;;;;;;;;4965828;28;93573;-64
2023/10/28 05:34:59;;;;;;;3.78;2.90;;;;;;;;;;4965340;28;92537;-64
2023/10/28 05:37:27;;;;;;;5.57;2.50;;;;;;;;;;4966787;28;93660;-64
2023/10/28 05:39:53;;;;;;;9.18;3.08;;;;;;;;;;4963443;28;93399;-64
2023/10/28 05:42:20;;;;;;;8.20;2.88;;;;;;;;;;4956890;28;91642;-64
2023/10/28 05:44:46;;;;;;;10.60;3.00;;;;;;;;;;4964367;28;92498;-64
2023/10/28 05:47:13;;;;;;;7.70;3.13;;;;;;;;;;4965918;28;93499;-64
2023/10/28 05:49:39;;;;;;;8.73;3.20;;;;;;;;;;4965603;28;95135;-65
2023/10/28 05:52:05;;;;;;;5.50;2.80;;;;;;;;;;4963046;28;93857;-64
2023/10/28 05:54:32;;;;;;;7.72;3.35;;;;;;;;;;4965874;28;92524;-65
2023/10/28 05:56:59;;;;;;;8.32;2.83;;;;;;;;;;4964307;28;94200;-64
2023/10/28 05:59:25;;;;;;;7.63;2.97;;;;;;;;;;4961719;28;93445;-64
2023/10/28 06:01:51;;;;;;;10.80;2.97;;;;;;;;;;4960429;28;92474;-64
2023/10/28 06:04:21;;;;;;;7.97;2.67;;;;;;;;;;4966690;28;93167;-64
2023/10/28 06:06:48;;;;;;;11.57;3.60;;;;;;;;;;4964070;28;92712;-64
2023/10/28 06:09:15;;;;;;;7.28;3.25;;;;;;;;;;4966111;28;92393;-64
2023/10/28 06:11:41;;;;;;;12.45;3.53;;;;;;;;;;4963721;28;93154;-64
2023/10/28 06:14:08;;;;;;;7.78;3.25;;;;;;;;;;4963200;28;94825;-64
2023/10/28 06:16:35;;;;;;;6.35;2.80;;;;;;;;;;4969641;28;95451;-64
2023/10/28 06:19:02;;;;;;;9.23;3.08;;;;;;;;;;4958751;28;93416;-64
2023/10/28 06:21:28;;;;;;;8.63;2.85;;;;;;;;;;4961086;28;92368;-64
2023/10/28 06:23:54;;;;;;;9.85;3.05;;;;;;;;;;4967010;28;93319;-65
2023/10/28 06:26:21;;;;;;;9.20;3.67;;;;;;;;;;4964078;28;94444;-64
2023/10/28 06:28:47;;;;;;;12.50;3.00;;;;;;;;;;4966025;28;92541;-63
2023/10/28 06:31:14;;;;;;;6.32;3.20;;;;;;;;;;4958817;28;93161;-64
2023/10/28 06:33:40;;;;;;;10.43;2.78;;;;;;;;;;4967544;28;93718;-64
2023/10/28 06:36:08;;;;;;;11.07;3.35;;;;;;;;;;4963493;28;93529;-64
2023/10/28 06:38:35;;;;;;;5.25;2.47;;;;;;;;;;4959238;28;96881;-64
2023/10/28 06:41:01;;;;;;;7.05;2.70;;;;;;;;;;4964014;28;92911;-64
2023/10/28 06:43:27;;;;;;;10.85;3.00;;;;;;;;;;4966158;28;92970;-64
2023/10/28 06:45:54;;;;;;;10.10;2.92;;;;;;;;;;4962829;28;93380;-64
2023/10/28 06:48:20;;;;;;;6.65;2.50;;;;;;;;;;4966032;28;92824;-64
2023/10/28 06:50:48;;;;;;;7.35;2.67;;;;;;;;;;4962438;28;93014;-65
2023/10/28 06:53:14;;;;;;;10.65;2.88;;;;;;;;;;4963625;28;94499;-64
2023/10/28 06:55:41;;;;;;;12.02;3.70;;;;;;;;;;4967868;28;91828;-64
2023/10/28 06:58:07;;;;;;;10.85;3.17;;;;;;;;;;4958237;28;93465;-64
2023/10/28 07:00:33;;;;;;;13.95;3.47;;;;;;;;;;4960278;28;92540;-65
2023/10/28 07:03:00;;;;;;;5.07;2.72;;;;;;;;;;4963899;28;95131;-64
2023/10/28 07:05:26;;;;;;;7.15;3.10;;;;;;;;;;4966497;28;93554;-64
2023/10/28 07:07:56;;;;;;;5.82;3.03;;;;;;;;;;4959378;28;92487;-64
2023/10/28 07:10:22;;;;;;;9.30;2.90;;;;;;;;;;4959163;28;93444;-64
2023/10/28 07:12:49;;;;;;;10.00;2.67;;;;;;;;;;4957361;28;94426;-64
2023/10/28 07:15:16;;;;;;;9.43;3.03;;;;;;;;;;4962183;28;92497;-64
2023/10/28 07:17:43;;;;;;;10.10;2.80;;;;;;;;;;4961687;28;95067;-64
2023/10/28 07:20:10;;;;;;;7.40;2.60;;;;;;;;;;4964528;28;91896;-64
2023/10/28 07:22:36;;;;;;;8.00;2.70;;;;;;;;;;4964214;28;92426;-64
2023/10/28 07:25:04;;;;;;;8.48;2.50;;;;;;;;;;4963516;28;94344;-64
2023/10/28 07:27:31;;;;;;;9.27;2.78;;;;;;;;;;4963668;28;95094;-64
2023/10/28 07:29:59;;;;;;;9.25;2.95;;;;;;;;;;4962644;28;94383;-62
2023/10/28 07:32:25;;;;;;;5.70;2.85;;;;;;;;;;4964330;28;93385;-62
2023/10/28 07:34:52;;;;;;;8.65;2.72;;;;;;;;;;4955567;28;92558;-61
2023/10/28 07:37:18;;;;;;;7.13;3.13;;;;;;;;;;4964850;28;94163;-62
2023/10/28 07:39:45;;;;;;;7.63;2.90;;;;;;;;;;4966304;28;93266;-61
2023/10/28 07:42:11;;;;;;;5.75;2.72;;;;;;;;;;4963715;28;93313;-62
2023/10/28 07:44:39;;;;;;;14.02;3.78;;;;;;;;;;4963876;28;92753;-61
2023/10/28 07:47:06;;;;;;;7.13;2.50;;;;;;;;;;4962711;28;92589;-62
2023/10/28 07:49:33;;;;;;;10.00;3.15;;;;;;;;;;4964160;28;93430;-62
2023/10/28 07:51:59;;;;;;;10.23;2.75;;;;;;;;;;4956420;28;95911;-61
2023/10/28 07:54:25;;;;;;;7.00;2.85;;;;;;;;;;4961854;28;92704;-62
2023/10/28 07:56:52;;;;;;;5.25;2.17;;;;;;;;;;4962025;28;93113;-62
2023/10/28 07:59:19;;;;;;;4.93;2.80;;;;;;;;;;4960302;28;93384;-62
2023/10/28 08:01:45;;;;;;;9.85;2.33;;;;;;;;;;4963316;28;93449;-62
2023/10/28 08:04:13;;;;;;;9.27;3.13;;;;;;;;;;4963267;28;93491;-62
2023/10/28 08:06:43;;;;;;;10.15;2.10;;;;;;;;;;4966337;28;92576;-63
2023/10/28 08:09:09;;;;;;;13.30;2.70;;;;;;;;;;4966000;28;93154;-62
2023/10/28 08:11:36;;;;;;;9.63;2.17;;;;;;;;;;4962920;28;93430;-62
2023/10/28 08:14:03;;;;;;;9.00;2.63;;;;;;;;;;4960026;28;92933;-62
2023/10/28 08:16:30;;;;;;;6.38;2.05;;;;;;;;;;4963852;28;94946;-62
2023/10/28 08:18:58;;;;;;;4.55;2.08;;;;;;;;;;4961573;28;93266;-61
2023/10/28 08:21:25;;;;;;;8.65;2.70;;;;;;;;;;4969059;28;92925;-62
2023/10/28 08:23:51;;;;;;;11.50;3.78;;;;;;;;;;4964783;28;93438;-62
2023/10/28 08:26:18;;;;;;;14.48;2.83;;;;;;;;;;4962467;28;92929;-62
2023/10/28 08:28:46;;;;;;;10.07;2.75;;;;;;;;;;4963001;28;92835;-62
2023/10/28 08:31:13;;;;;;;15.55;3.78;;;;;;;;;;4962742;28;93440;-62
2023/10/28 08:33:42;;;;;;;12.18;2.35;;;;;;;;;;4961787;28;91789;-62
2023/10/28 08:36:09;;;;;;;10.85;2.47;;;;;;;;;;4961495;28;93412;-62
2023/10/28 08:38:36;;;;;;;10.85;3.38;;;;;;;;;;4962193;28;95228;-64
2023/10/28 08:41:03;;;;;;;7.57;2.63;;;;;;;;;;4963316;28;95330;-64
2023/10/28 08:43:36;;;;;;;14.23;2.78;;;;;;;;;;4964176;28;95247;-64
2023/10/28 08:46:04;;;;;;;8.32;2.03;;;;;;;;;;4958267;28;92456;-64
2023/10/28 08:48:34;;;;;;;11.05;2.30;;;;;;;;;;4964697;28;94440;-65
2023/10/28 08:51:02;;;;;;;10.55;2.55;;;;;;;;;;4953663;28;94430;-66
2023/10/28 08:53:29;;;;;;;9.80;2.25;;;;;;;;;;4958209;28;92462;-65
2023/10/28 08:55:56;;;;;;;10.32;2.33;;;;;;;;;;4961089;28;94463;-65
2023/10/28 08:58:23;;;;;;;11.02;2.30;;;;;;;;;;4962051;28;93699;-65
2023/10/28 09:00:54;;;;;;;6.90;2.05;;;;;;;;;;4965861;28;92503;-65
2023/10/28 09:03:25;;;;;;;7.93;2.13;;;;;;;;;;4967855;28;92390;-65
2023/10/28 09:05:54;;;;;;;19.25;2.70;;;;;;;;;;4965980;28;96192;-64
2023/10/28 09:08:21;;;;;;;13.10;3.55;;;;;;;;;;4966827;28;94257;-66
2023/10/28 09:10:47;;;;;;;13.05;2.63;;;;;;;;;;4965879;28;93474;-65
2023/10/28 09:13:14;;;;;;;13.50;3.78;;;;;;;;;;4965132;28;92475;-65
2023/10/28 09:15:41;;;;;;;8.80;2.88;;;;;;;;;;4959623;28;94109;-65
2023/10/28 09:18:10;;;;;;;12.82;2.75;;;;;;;;;;4966927;28;94382;-65
2023/10/28 09:20:41;;;;;;;12.10;2.30;;;;;;;;;;4966718;28;92416;-65
2023/10/28 09:23:07;;;;;;;10.52;2.33;;;;;;;;;;4965853;28;93138;-64
2023/10/28 09:25:35;;;;;;;12.20;3.85;;;;;;;;;;4967284;28;93447;-65
2023/10/28 09:28:08;;;;;;;13.85;2.83;;;;;;;;;;4967373;28;93058;-65
2023/10/28 09:30:44;;;;;;;15.93;3.92;;;;;;;;;;4955455;28;95796;-65
2023/10/28 09:33:11;;;;;;;11.20;2.42;;;;;;;;;;4965109;28;92532;-65
2023/10/28 09:35:39;;;;;;;7.18;2.33;;;;;;;;;;4958913;28;93142;-65
2023/10/28 09:38:06;;;;;;;14.80;2.50;;;;;;;;;;4966971;28;94477;-65
2023/10/28 09:40:32;;;;;;;10.88;2.83;;;;;;;;;;4963721;28;92485;-64
2023/10/28 09:43:02;;;;;;;13.80;1.70;;;;;;;;;;4960362;28;92784;-64
2023/10/28 09:45:30;;;;;;;6.13;1.77;;;;;;;;;;4960512;28;94223;-64
2023/10/28 09:47:58;;;;;;;20.05;2.92;;;;;;;;;;4960564;28;91808;-64
2023/10/28 09:50:28;;;;;;;24.23;2.28;;;;;;;;;;4969773;28;92650;-65
2023/10/28 09:52:56;;;;;;;10.40;2.35;;;;;;;;;;4964817;28;92578;-65
2023/10/28 09:55:24;;;;;;;13.93;2.10;;;;;;;;;;4957936;28;95010;-65
2023/10/28 09:58:00;;;;;;;9.43;2.95;;;;;;;;;;4965964;28;93410;-64
2023/10/28 10:00:27;;;;;;;13.07;2.70;;;;;;;;;;4965116;28;92693;-64
2023/10/28 10:03:12;;;;;;;11.60;2.72;;;;;;;;;;4965226;28;94224;-64
2023/10/28 10:05:45;;;;;;;10.00;2.55;;;;;;;;;;4956689;28;93629;-64
2023/10/28 10:08:18;;;;;;;7.68;2.08;;;;;;;;;;4963266;28;92556;-64
2023/10/28 10:10:47;;;;;;;11.68;2.40;;;;;;;;;;4967347;28;93348;-64
2023/10/28 10:13:17;;;;;;;18.98;2.80;;;;;;;;;;4965586;28;92821;-64
2023/10/28 10:15:48;;;;;;;12.65;2.30;;;;;;;;;;4957010;28;93431;-64
2023/10/28 10:18:21;;;;;;;5.53;2.15;;;;;;;;;;4964678;28;93466;-64
2023/10/28 10:20:47;;;;;;;8.55;1.80;;;;;;;;;;4962937;28;94929;-64
2023/10/28 10:23:14;;;;;;;13.55;2.03;;;;;;;;;;4964110;28;95468;-65
2023/10/28 10:25:41;;;;;;;9.98;2.63;;;;;;;;;;4965185;28;93286;-65
2023/10/28 10:28:15;;;;;;;12.30;2.47;;;;;;;;;;4960796;28;92538;-65
2023/10/28 10:30:42;;;;;;;9.77;2.20;;;;;;;;;;4965656;28;93105;-65
2023/10/28 10:33:11;;;;;;;9.75;3.03;;;;;;;;;;4966998;28;93469;-65
2023/10/28 10:35:38;;;;;;;9.18;2.00;;;;;;;;;;4957936;28;93126;-65
2023/10/28 10:38:05;;;;;;;6.70;1.88;;;;;;;;;;4963403;28;93714;-64
2023/10/28 10:40:32;;;;;;;13.35;2.72;;;;;;;;;;4960011;28;92392;-64
2023/10/28 10:43:05;;;;;;;11.18;2.55;;;;;;;;;;4966456;28;93120;-65
2023/10/28 10:45:32;;;;;;;5.50;1.90;;;;;;;;;;4957278;28;95910;-65
2023/10/28 10:47:58;;;;;;;10.70;2.97;;;;;;;;;;4963014;28;92526;-65
2023/10/28 10:50:25;;;;;;;9.23;2.08;;;;;;;;;;4964867;28;93112;-65
2023/10/28 10:52:52;;;;;;;12.27;2.75;;;;;;;;;;4963935;28;92399;-65
2023/10/28 10:55:24;;;;;;;11.68;1.95;;;;;;;;;;4961851;28;92379;-65
2023/10/28 10:57:51;;;;;;;8.02;1.95;;;;;;;;;;4965264;28;93384;-65
2023/10/28 11:00:18;;;;;;;11.02;2.30;;;;;;;;;;4963515;28;92824;-65
2023/10/28 11:02:45;;;;;;;4.93;1.52;;;;;;;;;;4964786;28;93130;-65
2023/10/28 11:05:12;;;;;;;6.95;1.63;;;;;;;;;;4954706;28;93411;-65
2023/10/28 11:07:41;;;;;;;8.75;1.90;;;;;;;;;;4962938;28;92447;-65
2023/10/28 11:10:08;;;;;;;6.25;1.60;;;;;;;;;;4964542;28;94874;-65
2023/10/28 11:12:35;;;;;;;7.95;2.65;;;;;;;;;;4962216;28;93431;-65
2023/10/28 11:15:01;;;;;;;9.63;2.53;;;;;;;;;;4955209;28;92471;-65
2023/10/28 11:17:29;;;;;;;13.05;2.35;;;;;;;;;;4965016;28;92463;-65
2023/10/28 11:19:56;;;;;;;13.77;2.50;;;;;;;;;;4964492;28;92475;-65
2023/10/28 11:22:23;;;;;;;8.43;1.77;;;;;;;;;;4961893;28;93088;-65
2023/10/28 11:24:56;;;;;;;11.43;1.25;;;;;;;;;;4953086;28;93377;-64
2023/10/28 11:27:26;;;;;;;5.50;1.35;;;;;;;;;;4964315;28;91644;-65
2023/10/28 11:29:58;;;;;;;6.78;1.98;;;;;;;;;;4966681;28;92592;-64
2023/10/28 11:32:26;;;;;;;9.98;2.17;;;;;;;;;;4964278;28;93423;-65
2023/10/28 11:34:53;;;;;;;8.90;1.67;;;;;;;;;;4962192;28;95476;-64
2023/10/28 11:37:19;;;;;;;7.35;1.65;;;;;;;;;;4963837;28;96431;-65
2023/10/28 11:39:47;;;;;;;9.32;1.75;;;;;;;;;;4967099;28;94436;-64
2023/10/28 11:42:15;;;;;;;8.02;1.90;;;;;;;;;;4953277;28;93164;-65
2023/10/28 11:44:47;;;;;;;9.95;1.83;;;;;;;;;;4959383;28;93427;-65
2023/10/28 11:47:13;;;;;;;9.80;1.75;;;;;;;;;;4965160;28;93000;-65
2023/10/28 11:49:40;;;;;;;10.82;2.30;;;;;;;;;;4962079;28;93184;-65
2023/10/28 11:52:06;;;;;;;6.85;1.80;;;;;;;;;;4965588;28;92715;-64
2023/10/28 11:54:36;;;;;;;11.07;2.08;;;;;;;;;;4957107;28;92589;-65
2023/10/28 11:57:02;;;;;;;8.50;1.95;;;;;;;;;;4964936;28;93140;-65
2023/10/28 11:59:28;;;;;;;8.65;2.63;;;;;;;;;;4960298;28;95892;-65
2023/10/28 12:01:55;;;;;;;8.65;1.90;;;;;;;;;;4958390;28;92515;-65
2023/10/28 12:04:21;;;;;;;8.07;2.00;;;;;;;;;;4962936;28;93051;-65
2023/10/28 12:06:48;;;;;;;9.68;1.95;;;;;;;;;;4956699;28;92539;-65
2023/10/28 12:09:14;;;;;;;15.90;1.85;;;;;;;;;;4964645;28;93131;-62
2023/10/28 12:11:41;;;;;;;12.70;2.13;;;;;;;;;;4961575;28;93434;-63
2023/10/28 12:14:07;;;;;;;8.13;2.03;;;;;;;;;;4964720;28;92493;-62
2023/10/28 12:16:38;;;;;;;12.23;2.03;;;;;;;;;;4958813;28;93125;-62
2023/10/28 12:19:05;;;;;;;10.38;2.00;;;;;;;;;;4957845;28;92930;-62
2023/10/28 12:21:32;;;;;;;13.63;2.42;;;;;;;;;;4963882;28;92583;-62
2023/10/28 12:24:03;;;;;;;9.90;1.73;;;;;;;;;;4960046;28;96816;-62
2023/10/28 12:26:29;;;;;;;10.20;2.17;;;;;;;;;;4964955;28;92497;-62
2023/10/28 12:28:56;;;;;;;14.98;2.85;;;;;;;;;;4956769;28;93464;-62
2023/10/28 12:31:23;;;;;;;9.82;2.63;;;;;;;;;;4962346;28;94493;-63
2023/10/28 12:33:50;;;;;;;23.27;2.95;;;;;;;;;;4963644;28;92484;-63
2023/10/28 12:36:17;;;;;;;17.20;3.28;;;;;;;;;;4968988;28;93171;-63
2023/10/28 12:38:46;;;;;;;11.98;2.35;;;;;;;;;;4966389;28;93379;-63
2023/10/28 12:41:12;;;;;;;11.02;2.20;;;;;;;;;;4963113;28;91594;-63
2023/10/28 12:43:39;;;;;;;17.23;3.63;;;;;;;;;;4971181;28;93555;-63
2023/10/28 12:46:06;;;;;;;12.55;2.75;;;;;;;;;;4961652;28;92529;-62
2023/10/28 12:48:33;;;;;;;14.10;2.28;;;;;;;;;;4963270;28;94717;-62
2023/10/28 12:51:02;;;;;;;19.05;2.67;;;;;;;;;;4967863;28;95365;-63
2023/10/28 12:53:29;;;;;;;13.15;2.47;;;;;;;;;;4964869;28;92854;-63
2023/10/28 12:55:56;;;;;;;13.73;2.70;;;;;;;;;;4967185;28;93213;-63
2023/10/28 12:58:23;;;;;;;9.75;2.42;;;;;;;;;;4959297;28;92529;-63
2023/10/28 13:00:49;;;;;;;9.77;2.65;;;;;;;;;;4960042;28;92530;-63
2023/10/28 13:03:16;;;;;;;12.68;2.85;;;;;;;;;;4967631;28;93105;-63
2023/10/28 13:05:42;;;;;;;24.90;3.08;;;;;;;;;;4968221;28;92733;-63
2023/10/28 13:08:09;;;;;;;13.60;2.50;;;;;;;;;;4967570;28;92475;-62
2023/10/28 13:10:36;;;;;;;12.77;2.70;;;;;;;;;;4956301;28;93589;-62
2023/10/28 13:13:03;;;;;;;11.63;2.60;;;;;;;;;;4962955;28;95421;-63
2023/10/28 13:15:29;;;;;;;18.00;2.67;;;;;;;;;;4966152;28;95550;-62
2023/10/28 13:17:58;;;;;;;12.50;2.88;;;;;;;;;;4958399;28;94369;-63
2023/10/28 13:20:25;;;;;;;9.95;2.15;;;;;;;;;;4964424;28;93209;-65
2023/10/28 13:22:51;;;;;;;9.60;2.47;;;;;;;;;;4966685;28;92920;-65
2023/10/28 13:25:18;;;;;;;15.45;2.47;;;;;;;;;;4964904;28;94107;-65
2023/10/28 13:27:45;;;;;;;14.80;2.60;;;;;;;;;;4969794;28;92543;-65
2023/10/28 13:30:12;;;;;;;13.35;2.40;;;;;;;;;;4965130;28;93651;-65
2023/10/28 13:32:38;;;;;;;13.82;3.25;;;;;;;;;;4963784;28;92430;-65
2023/10/28 13:35:21;;;;;;;11.23;3.13;;;;;;;;;;4965893;28;93711;-65
2023/10/28 13:37:49;;;;;;;13.57;2.80;;;;;;;;;;4962429;28;95698;-65
2023/10/28 13:40:16;;;;;;;16.05;2.78;;;;;;;;;;4963602;28;92925;-65
2023/10/28 13:42:42;;;;;;;16.58;2.92;;;;;;;;;;4964878;28;94243;-65
2023/10/28 13:45:08;;;;;;;20.42;3.28;;;;;;;;;;4967031;28;93573;-65
2023/10/28 13:47:35;;;;;;;19.42;3.83;;;;;;;;;;4964220;28;92513;-65
2023/10/28 13:50:04;;;;;;;19.85;2.95;;;;;;;;;;4967417;28;94302;-65
2023/10/28 13:52:32;;;;;;;17.35;3.05;;;;;;;;;;4963358;28;92566;-65
2023/10/28 13:54:58;;;;;;;18.05;3.72;;;;;;;;;;4961893;28;93148;-65
2023/10/28 13:57:24;;;;;;;20.60;4.32;;;;;;;;;;4963791;28;94471;-64
2023/10/28 13:59:53;;;;;;;29.10;3.22;;;;;;;;;;4958817;28;92571;-65
2023/10/28 14:02:19;;;;;;;16.77;3.22;;;;;;;;;;4966288;28;94767;-65
2023/10/28 14:04:46;;;;;;;14.73;2.80;;;;;;;;;;4965574;28;93488;-65
2023/10/28 14:07:12;;;;;;;18.20;3.65;;;;;;;;;;4964335;28;92390;-66
2023/10/28 14:09:38;;;;;;;13.60;3.10;;;;;;;;;;4969900;28;93129;-66
2023/10/28 14:12:05;;;;;;;16.75;3.17;;;;;;;;;;4962855;28;92695;-66
2023/10/28 14:14:31;;;;;;;16.45;3.30;;;;;;;;;;4966044;28;93545;-66
2023/10/28 14:16:57;;;;;;;10.80;2.42;;;;;;;;;;4965223;28;93571;-66
2023/10/28 14:19:24;;;;;;;18.27;3.60;;;;;;;;;;4960341;28;91849;-66
2023/10/28 14:21:50;;;;;;;17.33;3.85;;;;;;;;;;4964263;28;92453;-66
2023/10/28 14:24:19;;;;;;;15.25;3.90;;;;;;;;;;4965517;28;93547;-66
2023/10/28 14:26:46;;;;;;;14.27;3.78;;;;;;;;;;4961759;28;94833;-66
2023/10/28 14:29:12;;;;;;;15.98;4.00;;;;;;;;;;4966283;28;94336;-63
2023/10/28 14:31:39;;;;;;;24.90;9.50;;;;;;;;;;4962845;28;93581;-64
2023/10/28 14:34:05;;;;;;;35.58;30.42;;;;;;;;;;4956308;28;93177;-63